createdAt,value
2023-05-11T02:46:36.206Z,0.857143
2023-05-11T02:47:36.281Z,0.857143
2023-05-11T02:48:36.369Z,0.857143
2023-05-11T02:49:37.023Z,0.857143
2023-05-11T02:50:37.200Z,1.71429
2023-05-11T02:51:37.330Z,1.71429
2023-05-11T02:52:37.859Z,2.5
2023-05-11T02:53:37.910Z,3.35714
2023-05-11T02:54:37.942Z,3.35714
2023-05-11T02:55:38.353Z,4.21429
2023-05-11T02:56:38.498Z,5
2023-05-11T02:57:38.860Z,5.85714
2023-05-11T02:58:39.104Z,7.5
2023-05-11T02:59:39.506Z,8.35714
2023-05-11T03:00:39.677Z,10
2023-05-11T03:01:40.025Z,10.8571
2023-05-11T03:02:40.754Z,12.5
2023-05-11T03:03:40.854Z,15
2023-05-11T03:04:41.224Z,16.7143
2023-05-11T03:05:41.682Z,19.2143
2023-05-11T03:06:42.078Z,21.7143
2023-05-11T03:07:42.554Z,25
2023-05-11T03:08:43.162Z,27.5
2023-05-11T03:09:43.398Z,30.8571
2023-05-11T03:10:44.415Z,34.2143
2023-05-11T03:11:45.786Z,38.3571
2023-05-11T03:12:46.308Z,42.5
2023-05-11T03:13:46.504Z,47.5
2023-05-11T03:14:47.062Z,53.3571
2023-05-11T03:15:47.966Z,57.5
2023-05-11T03:16:48.410Z,62.5
2023-05-11T03:17:48.961Z,68.3571
2023-05-11T03:18:48.945Z,73.3571
2023-05-11T03:19:49.847Z,80
2023-05-11T03:20:50.008Z,85.8571
2023-05-11T03:21:50.535Z,92.5
2023-05-11T03:22:51.088Z,100
2023-05-11T03:23:51.275Z,108.357
2023-05-11T03:24:52.105Z,116.714
2023-05-11T03:25:52.272Z,124.214
2023-05-11T03:26:53.082Z,133.357
2023-05-11T03:27:54.028Z,142.5
2023-05-11T03:28:54.741Z,151.714
2023-05-11T03:29:55.628Z,162.5
2023-05-11T03:30:56.103Z,172.5
2023-05-11T03:31:56.371Z,183.357
2023-05-11T03:32:57.349Z,194.214
2023-05-11T03:33:57.156Z,205
2023-05-11T03:34:58.261Z,217.5
2023-05-11T03:35:58.436Z,229.214
2023-05-11T03:36:58.484Z,240.857
2023-05-11T03:37:58.995Z,253.357
2023-05-11T03:38:59.090Z,266.714
2023-05-11T03:39:59.786Z,279.214
2023-05-11T03:41:00.074Z,291.714
2023-05-11T03:42:01.037Z,304.214
2023-05-11T03:43:01.243Z,316.714
2023-05-11T03:44:01.596Z,330
2023-05-11T03:45:02.091Z,342.5
2023-05-11T03:46:02.423Z,353.357
2023-05-11T03:47:02.899Z,367.5
2023-05-11T03:48:03.551Z,382.5
2023-05-11T03:49:03.639Z,395.857
2023-05-11T03:50:04.075Z,408.357
2023-05-11T03:51:05.150Z,421.714
2023-05-11T03:52:05.573Z,438.357
2023-05-11T03:53:05.691Z,456.714
2023-05-11T03:54:05.824Z,468.357
2023-05-11T03:55:06.433Z,491.714
2023-05-11T03:56:06.626Z,507.5
2023-05-11T03:57:06.804Z,525
2023-05-11T03:58:07.328Z,540.857
2023-05-11T03:59:08.217Z,555.857
2023-05-11T04:00:08.957Z,570
2023-05-11T04:01:09.081Z,580.857
2023-05-11T04:02:09.635Z,597.5
2023-05-11T04:03:10.649Z,613.357
2023-05-11T04:04:10.483Z,642.5
2023-05-11T04:05:11.321Z,660.857
2023-05-11T04:06:11.852Z,661.714
2023-05-11T04:07:12.486Z,675.857
2023-05-11T04:08:12.973Z,690
2023-05-11T04:09:13.595Z,705.857
2023-05-11T04:10:14.097Z,718.357
2023-05-11T04:11:14.535Z,732.5
2023-05-11T04:12:15.210Z,746.714
2023-05-11T04:13:15.943Z,764.214
2023-05-11T04:14:16.957Z,781.714
2023-05-11T04:15:17.829Z,800.857
2023-05-11T04:16:18.384Z,816.714
2023-05-11T04:17:18.769Z,831.714
2023-05-11T04:18:19.465Z,842.5
2023-05-11T04:19:20.435Z,854.214
2023-05-11T04:20:21.453Z,866.714
2023-05-11T04:21:22.049Z,876.714
2023-05-11T04:22:22.628Z,887.5
2023-05-11T04:23:23.538Z,900.857
2023-05-11T04:24:24.500Z,914.214
2023-05-11T04:25:25.284Z,925.857
2023-05-11T04:26:25.975Z,938.357
2023-05-11T04:27:26.952Z,950
2023-05-11T04:28:27.857Z,963.357
2023-05-11T04:29:28.543Z,975
2023-05-11T04:30:29.428Z,986.714
2023-05-11T04:31:30.572Z,999.214
2023-05-11T04:32:31.307Z,1013.36
2023-05-11T04:33:32.284Z,1027.5
2023-05-11T04:34:33.096Z,1040.86
2023-05-11T04:35:33.894Z,1054.21
2023-05-11T04:36:34.836Z,1068.36
2023-05-11T04:37:34.864Z,1099.21
2023-05-11T04:38:36.383Z,1111.71
2023-05-11T04:39:36.275Z,1124.21
2023-05-11T04:40:36.298Z,1136.71
2023-05-11T04:41:36.346Z,1153.36
2023-05-11T04:42:36.884Z,1192.5
2023-05-11T04:43:36.898Z,1226.71
2023-05-11T04:44:37.372Z,1215
2023-05-11T04:45:38.299Z,1256.71
2023-05-11T04:46:38.702Z,1282.5
2023-05-11T04:47:38.987Z,1284.21
2023-05-11T04:48:39.143Z,1291.71
2023-05-11T04:49:39.222Z,1339.21
2023-05-11T04:50:39.440Z,1413.36
2023-05-11T04:51:40.397Z,1516.71
2023-05-11T04:52:40.846Z,1606.71
2023-05-11T04:53:42.194Z,1581.71
2023-05-11T04:54:41.685Z,1525
2023-05-11T04:55:42.441Z,1483.36
2023-05-11T04:56:43.412Z,1465
2023-05-11T04:57:44.212Z,1466.71
2023-05-11T04:58:44.279Z,1480.86
2023-05-11T04:59:45.229Z,1490
2023-05-11T05:00:45.460Z,1530.86
2023-05-11T05:01:46.324Z,1580
2023-05-11T05:02:46.674Z,1586.71
2023-05-11T05:03:47.021Z,1580.86
2023-05-11T05:04:50.079Z,1583.36
2023-05-11T05:05:47.200Z,1594.21
2023-05-11T05:06:47.527Z,1611.71
2023-05-11T05:07:48.219Z,1641.71
2023-05-11T05:08:48.946Z,1706.71
2023-05-11T05:09:49.909Z,1724.21
2023-05-11T05:10:50.746Z,1785.86
2023-05-11T05:11:51.511Z,1866.71
2023-05-11T05:12:52.084Z,1780.86
2023-05-11T05:13:52.157Z,1745
2023-05-11T05:14:52.488Z,1727.5
2023-05-11T05:15:53.393Z,1741.71
2023-05-11T05:16:53.946Z,1749.21
2023-05-11T05:17:54.502Z,1764.21
2023-05-11T05:18:55.380Z,1822.5
2023-05-11T05:19:55.354Z,1854.21
2023-05-11T05:20:55.780Z,1819.21
2023-05-11T05:21:56.107Z,1820.86
2023-05-11T05:22:56.845Z,1820
2023-05-11T05:23:57.735Z,1848.36
2023-05-11T05:24:58.124Z,1855.86
2023-05-11T05:25:58.388Z,1939.21
2023-05-11T05:26:58.660Z,2005.86
2023-05-11T05:27:59.181Z,1840
2023-05-11T05:28:59.916Z,1829.21
2023-05-11T05:30:00.252Z,1854.21
2023-05-11T05:31:00.648Z,1977.5
2023-05-11T05:32:01.492Z,2092.5
2023-05-11T05:33:02.441Z,2044.21
2023-05-11T05:34:03.019Z,2045
2023-05-11T05:35:04.068Z,2160.86
2023-05-11T05:36:04.680Z,2020.86
2023-05-11T05:37:05.711Z,1937.5
2023-05-11T05:38:06.631Z,1984.21
2023-05-11T05:39:07.185Z,2015
2023-05-11T05:40:07.714Z,2085
2023-05-11T05:41:08.334Z,2333.36
2023-05-11T05:42:08.346Z,2642.5
2023-05-11T05:43:08.502Z,2495.86
2023-05-11T05:44:08.581Z,2240
2023-05-11T05:45:08.652Z,2350.86
2023-05-11T05:46:09.519Z,2330
2023-05-11T05:47:09.539Z,2896.71
2023-05-11T05:48:10.261Z,3617.5
2023-05-11T05:49:10.354Z,4130
2023-05-11T05:50:11.285Z,4305
2023-05-11T05:51:12.094Z,4845.86
2023-05-11T05:52:13.232Z,5250.86
2023-05-11T05:53:13.951Z,5503.36
2023-05-11T05:54:14.763Z,5606.71
2023-05-11T05:55:15.788Z,4597.5
2023-05-11T05:56:16.446Z,4138.36
2023-05-11T05:57:17.173Z,4583.36
2023-05-11T05:58:17.845Z,5300.86
2023-05-11T05:59:18.122Z,4975
2023-05-11T06:00:18.649Z,5340
2023-05-11T06:01:19.029Z,6021.71
2023-05-11T06:02:19.731Z,6726.71
2023-05-11T06:03:19.833Z,7295
2023-05-11T06:04:20.105Z,6390.86
2023-05-11T06:05:20.326Z,4931.71
2023-05-11T06:06:21.219Z,4450.86
2023-05-11T06:16:27.327Z,8180.86
2023-05-11T06:17:27.554Z,8221.71
2023-05-11T06:18:27.920Z,8281.71
2023-05-11T06:19:28.982Z,8379.21
2023-05-11T06:20:29.037Z,8563.36
2023-05-11T06:21:29.856Z,8755
2023-05-11T06:22:30.812Z,8941.71
2023-05-11T06:23:31.694Z,9180.86
2023-05-11T06:24:31.831Z,9374.21
2023-05-11T06:25:32.605Z,9568.36
2023-05-11T06:26:33.007Z,9767.5
2023-05-11T06:27:33.797Z,10044.2
2023-05-11T06:28:33.868Z,10219.2
2023-05-11T06:29:34.515Z,10255
2023-05-11T06:30:35.671Z,10263.4
2023-05-11T06:31:36.208Z,10326.7
2023-05-11T06:32:36.757Z,10486.7
2023-05-11T06:33:36.833Z,10676.7
2023-05-11T06:34:37.162Z,10616.7
2023-05-11T06:35:37.905Z,10602.5
2023-05-11T06:36:38.124Z,10513.4
2023-05-11T06:37:39.015Z,10395
2023-05-11T06:38:39.278Z,10155.9
2023-05-11T06:39:40.169Z,9849.21
2023-05-11T06:40:40.910Z,9675
2023-05-11T06:41:41.856Z,9500
2023-05-11T06:42:42.175Z,9479.21
2023-05-11T06:43:42.383Z,9517.5
2023-05-11T06:44:42.560Z,9605
2023-05-11T06:45:43.097Z,9785
2023-05-11T06:46:43.125Z,10090
2023-05-11T06:47:43.903Z,10316.7
2023-05-11T06:48:44.730Z,10680.9
2023-05-11T06:49:44.758Z,11095.9
2023-05-11T06:50:45.496Z,11531.7
2023-05-11T06:51:46.076Z,11827.5
2023-05-11T06:52:46.162Z,11805.9
2023-05-11T06:53:46.675Z,11664.2
2023-05-11T06:54:47.352Z,11680
2023-05-11T06:55:48.440Z,11694.2
2023-05-11T06:56:48.964Z,11286.7
2023-05-11T06:57:48.972Z,10801.7
2023-05-11T06:58:49.798Z,10495
2023-05-11T06:59:50.829Z,10437.5
2023-05-11T07:00:51.381Z,10279.2
2023-05-11T07:01:52.074Z,10370.9
2023-05-11T07:02:52.398Z,10505.9
2023-05-11T07:03:54.824Z,10563.4
2023-05-11T07:04:53.786Z,10672.5
2023-05-11T07:05:54.286Z,10715
2023-05-11T07:06:54.725Z,10738.4
2023-05-11T07:07:55.531Z,10624.2
